Time;durP1;ratioP1;P1;durP2;ratioP2;P2;SDS_P1;SDS_P2;PMS_P1;PMS_P2;Temp;Humidity;BMP_temperature;BMP_pressure;BME280_temperature;BME280_humidity;BME280_pressure;Samples;Min_cycle;Max_cycle;Signal;HPM_P1;HPM_P2
2022/08/22 00:00:41;;;;;;;10.48;4.30;;;;;;;17.24;73.26;101408.31;4976456;28;20038;-93
2022/08/22 00:03:07;;;;;;;9.90;4.20;;;;;;;17.22;73.10;101411.09;4969440;28;20041;-93
2022/08/22 00:05:56;;;;;;;10.82;4.22;;;;;;;17.14;72.58;101395.50;4958154;28;20019;-94
2022/08/22 00:08:48;;;;;;;8.70;4.30;;;;;;;17.10;73.03;101403.91;4972399;28;20041;-92
2022/08/22 00:11:24;;;;;;;9.48;4.55;;;;;;;17.17;73.45;101406.03;4971891;28;20027;-93
2022/08/22 00:14:02;;;;;;;7.28;4.03;;;;;;;17.22;72.96;101407.53;4956112;28;20031;-91
2022/08/22 00:16:58;;;;;;;8.13;4.40;;;;;;;17.21;73.25;101398.63;4968840;28;20031;-91
2022/08/22 00:19:54;;;;;;;8.32;4.38;;;;;;;17.30;72.14;101406.03;4975224;28;20122;-91
2022/08/22 00:22:46;;;;;;;8.48;5.00;;;;;;;17.29;72.27;101407.00;4967726;28;20018;-91
2022/08/22 00:25:45;;;;;;;9.05;4.50;;;;;;;17.30;72.35;101406.03;4974623;28;20073;-93
2022/08/22 00:28:19;;;;;;;10.02;4.40;;;;;;;17.26;73.36;101404.53;4980475;28;20046;-92
2022/08/22 00:30:59;;;;;;;7.10;4.70;;;;;;;17.26;73.15;101409.91;4963101;28;20043;-92
2022/08/22 00:33:51;;;;;;;9.10;5.35;;;;;;;17.25;73.10;101415.41;4977467;28;20058;-93
2022/08/22 00:36:36;;;;;;;8.57;5.22;;;;;;;17.24;72.48;101401.09;4974115;28;20046;-93
2022/08/22 00:39:10;;;;;;;9.10;4.90;;;;;;;17.25;73.07;101396.56;4978358;28;20042;-92
2022/08/22 00:41:53;;;;;;;5.30;4.25;;;;;;;17.33;72.84;101407.66;4972704;28;20054;-92
2022/08/22 00:44:41;;;;;;;8.13;4.65;;;;;;;17.32;72.87;101400.56;4956623;28;20112;-94
2022/08/22 00:47:37;;;;;;;11.00;5.55;;;;;;;17.28;73.78;101402.59;4972448;28;20058;-93
2022/08/22 00:50:36;;;;;;;8.57;5.00;;;;;;;17.30;72.77;101400.66;4956814;28;20031;-93
2022/08/22 00:53:23;;;;;;;7.18;4.53;;;;;;;17.24;73.00;101416.38;4960663;28;20041;-91
2022/08/22 00:56:25;;;;;;;6.68;4.80;;;;;;;17.20;73.43;101413.03;4952672;28;20046;-92
2022/08/22 00:59:16;;;;;;;6.50;4.40;;;;;;;17.13;74.47;101407.22;4963433;28;20052;-93
2022/08/22 01:02:26;;;;;;;11.68;5.30;;;;;;;17.17;73.18;101413.25;4968478;28;20038;-92
2022/08/22 01:05:13;;;;;;;7.07;5.15;;;;;;;17.17;73.88;101416.78;4890156;29;20116;-92
2022/08/22 01:08:11;;;;;;;8.90;5.18;;;;;;;17.13;73.21;101414.44;4891575;29;20033;-93
2022/08/22 01:10:48;;;;;;;9.77;5.40;;;;;;;17.08;74.28;101414.75;4884137;29;20032;-93
2022/08/22 01:13:51;;;;;;;10.48;5.05;;;;;;;17.12;73.87;101413.56;4896899;29;20036;-90
2022/08/22 01:16:44;;;;;;;10.20;5.00;;;;;;;17.08;74.62;101411.19;4903895;29;20113;-92
2022/08/22 01:19:37;;;;;;;7.07;4.97;;;;;;;17.07;74.34;101413.03;4904229;29;20047;-92
2022/08/22 01:22:34;;;;;;;7.47;4.53;;;;;;;17.04;74.42;101413.25;4907375;29;20100;-93
2022/08/22 01:25:17;;;;;;;8.23;4.90;;;;;;;17.02;74.75;101412.50;4906387;29;20069;-92
2022/08/22 01:28:20;;;;;;;12.48;5.38;;;;;;;17.04;74.19;101413.25;4903039;29;20645;-92
2022/08/22 01:31:10;;;;;;;11.10;5.28;;;;;;;16.96;74.51;101406.66;4897242;29;20036;-92
2022/08/22 01:34:12;;;;;;;8.55;5.50;;;;;;;17.04;74.39;101412.38;4894047;29;20057;-93
2022/08/22 01:36:52;;;;;;;9.73;5.20;;;;;;;16.99;74.99;101412.69;4891943;29;20126;-92
2022/08/22 01:39:30;;;;;;;10.50;5.93;;;;;;;16.96;74.45;101410.22;4896702;29;20029;-93
2022/08/22 01:42:01;;;;;;;10.30;6.03;;;;;;;16.86;74.40;101411.81;4958276;28;20050;-92
2022/08/22 01:44:55;;;;;;;9.93;5.93;;;;;;;16.86;74.16;101406.44;4971879;28;20520;-92
2022/08/22 01:47:36;;;;;;;10.90;5.80;;;;;;;16.73;74.40;101394.81;4967000;28;20535;-93
2022/08/22 01:50:17;;;;;;;10.55;6.63;;;;;;;16.79;74.20;101408.69;4955210;28;20031;-92
2022/08/22 01:52:48;;;;;;;12.57;6.28;;;;;;;16.67;74.65;101396.88;4971321;28;20027;-93
2022/08/22 01:55:19;;;;;;;13.13;6.63;;;;;;;16.72;74.79;101399.28;4954603;28;20129;-91
2022/08/22 01:57:52;;;;;;;9.43;5.90;;;;;;;16.71;75.08;101400.22;4970515;28;20023;-93
2022/08/22 02:00:19;;;;;;;10.07;6.35;;;;;;;16.69;75.14;101389.59;4972109;28;20086;-93
2022/08/22 02:03:06;;;;;;;13.52;7.03;;;;;;;16.70;75.16;101395.84;4954989;28;20031;-93
2022/08/22 02:05:53;;;;;;;12.77;6.60;;;;;;;16.67;75.02;101396.88;4969906;28;20027;-91
2022/08/22 02:08:26;;;;;;;11.73;6.35;;;;;;;16.57;75.33;101385.06;4954133;28;20023;-95
2022/08/22 02:11:00;;;;;;;10.73;5.78;;;;;;;16.67;75.22;101396.03;4971954;28;20027;-94
2022/08/22 02:13:53;;;;;;;11.70;5.82;;;;;;;16.65;75.44;101390.78;4970722;28;20238;-93
2022/08/22 02:16:21;;;;;;;11.02;6.28;;;;;;;16.65;75.50;101393.47;4968919;28;20045;-94
2022/08/22 02:19:11;;;;;;;8.85;6.00;;;;;;;16.67;75.63;101385.28;4956732;28;20038;-94
2022/08/22 02:22:14;;;;;;;13.35;5.97;;;;;;;16.74;75.12;101391.16;4975533;28;20382;-93
2022/08/22 02:24:59;;;;;;;12.50;6.00;;;;;;;16.72;74.88;101380.47;4956421;28;20046;-92
2022/08/22 02:27:43;;;;;;;13.35;6.70;;;;;;;16.77;74.74;101378.38;4975145;28;20041;-92
2022/08/22 02:30:14;;;;;;;12.98;6.50;;;;;;;16.73;75.07;101376.00;4975618;28;20604;-95
2022/08/22 02:32:39;;;;;;;11.95;6.57;;;;;;;16.76;74.95;101383.81;4958116;28;20031;-93
2022/08/22 02:35:26;;;;;;;9.35;5.68;;;;;;;16.80;74.92;101380.81;4973949;28;20022;-94
2022/08/22 02:38:07;;;;;;;11.77;6.20;;;;;;;16.80;74.94;101380.81;4954884;28;20030;-94
2022/08/22 02:41:10;;;;;;;9.05;6.07;;;;;;;16.82;74.76;101375.34;4958299;28;20027;-94
2022/08/22 02:43:46;;;;;;;10.55;6.68;;;;;;;16.77;75.09;101375.69;4959651;28;20388;-95
2022/08/22 02:46:29;;;;;;;10.63;6.40;;;;;;;16.81;74.72;101376.34;4956059;28;20023;-95
2022/08/22 02:49:35;;;;;;;11.37;6.20;;;;;;;16.82;74.59;101378.03;4959195;28;20074;-93
2022/08/22 02:52:15;;;;;;;13.95;6.45;;;;;;;16.78;74.79;101380.06;4941757;28;20356;-93
2022/08/22 02:54:51;;;;;;;9.75;6.32;;;;;;;16.73;75.39;101371.47;4970975;28;20043;-92
2022/08/22 02:57:30;;;;;;;12.75;6.43;;;;;;;16.79;75.85;101375.56;4976066;28;20027;-90
2022/08/22 03:00:14;;;;;;;11.68;6.18;;;;;;;16.74;76.00;101375.88;4957507;28;20038;-91
2022/08/22 03:03:01;;;;;;;9.85;6.15;;;;;;;16.63;76.18;101375.69;4977212;28;20031;-91
2022/08/22 03:05:28;;;;;;;10.25;5.88;;;;;;;16.56;77.49;101377.09;4975053;28;20023;-91
2022/08/22 03:08:12;;;;;;;8.55;5.88;;;;;;;16.53;76.55;101378.16;4958024;28;20125;-93
2022/08/22 03:10:47;;;;;;;7.75;5.68;;;;;;;16.48;77.63;101374.94;4973512;28;20041;-95
2022/08/22 03:13:32;;;;;;;8.55;4.88;;;;;;;16.35;78.20;101360.59;4959104;28;20124;-93
2022/08/22 03:16:05;;;;;;;9.68;5.70;;;;;;;16.42;78.62;101386.94;4959413;28;20082;-90
2022/08/22 03:18:49;;;;;;;11.82;5.72;;;;;;;16.38;78.60;101371.97;4956718;28;20465;-94
2022/08/22 03:21:42;;;;;;;8.00;5.80;;;;;;;16.36;78.07;101368.53;4953249;28;20065;-92
2022/08/22 03:24:14;;;;;;;8.68;5.95;;;;;;;16.24;78.47;101365.81;4973132;28;20053;-92
2022/08/22 03:26:55;;;;;;;10.30;6.40;;;;;;;16.21;78.72;101368.69;4958896;28;20038;-94
2022/08/22 03:29:30;;;;;;;9.00;5.97;;;;;;;16.13;78.62;101359.31;4975509;28;20058;-92
2022/08/22 03:32:04;;;;;;;12.07;6.18;;;;;;;16.15;78.81;101359.22;4955605;28;20132;-93
2022/08/22 03:34:30;;;;;;;10.43;5.72;;;;;;;16.03;79.22;101346.63;4954584;28;20035;-94
2022/08/22 03:37:13;;;;;;;11.95;5.97;;;;;;;16.08;78.83;101365.97;4976674;28;20015;-92
2022/08/22 03:39:48;;;;;;;;;;;;;;;16.11;77.07;101366.63;4957543;28;20081;-91
2022/08/22 03:42:13;;;;;;;;;;;;;;;16.08;76.49;101366.81;4949552;29;19907;-92
2022/08/22 03:45:03;;;;;;;12.98;7.25;;;;;;;15.94;79.43;101358.81;4939122;28;19929;-91
2022/08/22 03:47:28;;;;;;;10.35;7.38;;;;;;;15.87;79.86;101358.34;4940718;28;20525;-94
2022/08/22 03:49:53;;;;;;;15.40;7.97;;;;;;;15.77;80.15;101359.91;4942597;28;20350;-93
2022/08/22 03:53:05;;;;;;;13.40;7.80;;;;;;;15.67;80.56;101356.06;4943383;29;20023;-93
2022/08/22 03:55:42;;;;;;;12.18;7.43;;;;;;;15.54;81.26;101358.66;4936516;29;20031;-93
2022/08/22 03:58:29;;;;;;;12.70;8.57;;;;;;;15.46;81.93;101352.91;4944137;29;20027;-93
2022/08/22 04:01:51;;;;;;;11.93;8.40;;;;;;;15.44;80.76;101360.19;4945409;29;20035;-93
2022/08/22 04:04:47;;;;;;;12.27;8.23;;;;;;;15.40;81.53;101359.53;4910020;29;20040;-93
2022/08/22 04:07:30;;;;;;;15.50;8.73;;;;;;;15.37;81.63;101359.72;4915785;29;20406;-94
2022/08/22 04:10:06;;;;;;;11.63;7.82;;;;;;;15.30;81.92;101354.81;4905546;29;20040;-93
2022/08/22 04:13:10;;;;;;;12.68;9.18;;;;;;;15.28;82.04;101354.94;4916654;29;20040;-93
2022/08/22 04:15:44;;;;;;;10.55;8.20;;;;;;;15.23;83.16;101353.50;4917775;29;20156;-92
2022/08/22 04:18:40;;;;;;;11.48;7.88;;;;;;;15.24;82.17;101364.13;4927740;29;20043;-91
2022/08/22 04:21:40;;;;;;;13.75;8.50;;;;;;;15.25;81.90;101357.78;4929904;29;20117;-92
2022/08/22 04:24:27;;;;;;;14.93;8.02;;;;;;;15.19;82.63;101361.72;4922846;29;20039;-93
2022/08/22 04:26:58;;;;;;;9.50;6.90;;;;;;;15.06;83.85;101349.19;4911172;29;20040;-93
2022/08/22 04:29:31;;;;;;;12.52;7.88;;;;;;;15.12;83.87;101372.91;4897577;29;20040;-93
2022/08/22 04:32:28;;;;;;;12.27;8.02;;;;;;;15.12;82.84;101368.41;4909568;29;20079;-92
2022/08/22 04:35:06;;;;;;;10.32;7.47;;;;;;;15.03;83.69;101357.41;4920672;29;20048;-93
2022/08/22 04:37:49;;;;;;;16.27;7.60;;;;;;;15.06;84.02;101367.94;4935418;29;20383;-90
2022/08/22 04:40:35;;;;;;;14.00;8.90;;;;;;;15.08;83.49;101366.03;4952090;28;20035;-92
2022/08/22 04:43:34;;;;;;;12.07;8.20;;;;;;;15.06;83.27;101359.91;4957015;28;20303;-92
2022/08/22 04:46:23;;;;;;;14.57;8.20;;;;;;;15.06;83.59;101363.44;4950771;29;20095;-93
2022/08/22 04:49:04;;;;;;;11.23;8.18;;;;;;;15.10;83.68;101364.13;4950053;29;20047;-93
2022/08/22 04:51:51;;;;;;;12.02;7.82;;;;;;;15.13;83.84;101361.22;4955224;28;20236;-93
2022/08/22 04:54:31;;;;;;;11.13;8.70;;;;;;;15.12;84.55;101368.41;4958396;28;20031;-94
2022/08/22 04:57:21;;;;;;;12.95;8.35;;;;;;;15.19;84.37;101372.47;4949714;29;20063;-93
2022/08/22 04:59:48;;;;;;;13.52;8.38;;;;;;;15.15;84.26;101370.91;4949393;29;20035;-93
2022/08/22 05:02:21;;;;;;;11.30;7.20;;;;;;;15.21;84.51;101383.06;4950418;29;20109;-92
2022/08/22 05:04:55;;;;;;;11.75;7.45;;;;;;;15.22;84.36;101387.50;4975734;28;20027;-92
2022/08/22 05:07:27;;;;;;;10.95;7.60;;;;;;;15.30;84.45;101385.22;4958290;28;20080;-93
2022/08/22 05:10:20;;;;;;;11.68;7.93;;;;;;;15.35;83.29;101387.59;4952419;28;20028;-92
2022/08/22 05:13:16;;;;;;;11.05;7.93;;;;;;;15.36;83.06;101384.81;4920809;28;20679;-93
2022/08/22 05:15:47;;;;;;;9.27;7.07;;;;;;;15.30;84.19;101392.38;4939503;29;20470;-93
2022/08/22 05:18:23;;;;;;;12.48;8.10;;;;;;;15.36;83.82;101389.31;4960268;28;21752;-92
2022/08/22 05:20:51;;;;;;;10.15;7.82;;;;;;;15.40;83.99;101388.19;4957146;28;20031;-92
2022/08/22 05:23:26;;;;;;;13.30;8.05;;;;;;;15.41;84.24;101382.69;4942234;29;20121;-93
2022/08/22 05:25:56;;;;;;;12.85;8.30;;;;;;;15.47;83.72;101370.75;4937693;29;20047;-94
2022/08/22 05:28:30;;;;;;;13.63;8.63;;;;;;;15.67;82.92;101385.59;4947398;29;20016;-92
2022/08/22 05:30:56;;;;;;;13.88;8.73;;;;;;;15.75;83.25;101390.47;4936429;29;20130;-92
2022/08/22 05:33:31;;;;;;;12.77;8.68;;;;;;;15.84;82.25;101388.09;4937384;29;20031;-92
2022/08/22 05:36:08;;;;;;;11.55;8.73;;;;;;;15.94;82.34;101386.53;4950333;28;20644;-93
2022/08/22 05:38:40;;;;;;;13.13;8.40;;;;;;;16.00;82.24;101390.63;4947923;29;20038;-93
2022/08/22 05:41:08;;;;;;;15.77;9.48;;;;;;;16.01;82.16;101392.38;4939016;28;20019;-92
2022/08/22 05:43:39;;;;;;;13.02;8.98;;;;;;;16.11;81.68;101398.00;4969542;28;20027;-92
2022/08/22 05:46:09;;;;;;;13.63;8.68;;;;;;;16.12;81.65;101388.97;4970646;28;20034;-88
2022/08/22 05:48:42;;;;;;;14.00;9.02;;;;;;;16.20;81.32;101402.75;4961335;28;20034;-95
2022/08/22 05:51:29;;;;;;;14.23;8.70;;;;;;;16.25;81.01;101397.06;4968331;28;20039;-94
2022/08/22 05:56:36;;;;;;;16.08;9.48;;;;;;;16.36;81.41;101391.88;5099911;22;20288;-95
2022/08/22 05:59:26;;;;;;;12.00;8.85;;;;;;;16.49;80.54;101383.84;4975362;28;20505;-90
2022/08/22 06:02:07;;;;;;;17.02;9.77;;;;;;;16.62;80.29;101395.50;4981838;28;20447;-93
2022/08/22 06:04:51;;;;;;;16.10;9.30;;;;;;;16.74;80.20;101394.69;4973050;28;20023;-93
2022/08/22 06:07:43;;;;;;;13.25;9.68;;;;;;;16.79;79.43;101389.84;4984079;28;20034;-93
2022/08/22 06:10:34;;;;;;;13.90;9.80;;;;;;;16.83;79.62;101396.75;4964866;28;20050;-94
2022/08/22 06:13:10;;;;;;;14.20;9.48;;;;;;;16.90;79.53;101392.69;4987138;28;20084;-96
2022/08/22 06:18:17;;;;;;;20.40;12.38;;;;;;;16.98;78.58;101378.72;5285900;22;20050;-95
2022/08/22 06:20:57;;;;;;;15.75;10.48;;;;;;;17.18;78.01;101399.72;5021642;28;20034;-94
2022/08/22 06:23:35;;;;;;;15.32;10.13;;;;;;;17.11;77.86;101368.81;5030439;28;20037;-96
2022/08/22 06:26:07;;;;;;;16.40;10.85;;;;;;;17.13;77.83;101363.31;5022446;28;20034;-96
2022/08/22 06:28:37;;;;;;;17.15;11.27;;;;;;;17.18;77.38;101359.38;5029401;28;20022;-95
2022/08/22 06:31:23;;;;;;;17.40;12.05;;;;;;;17.17;77.01;101372.91;5018582;28;20006;-94
2022/08/22 06:34:13;;;;;;;15.02;10.32;;;;;;;17.36;77.51;101402.94;5021255;28;20021;-94
2022/08/22 06:36:42;;;;;;;19.92;11.68;;;;;;;17.17;77.17;101356.75;5020008;28;20487;-94
2022/08/22 06:39:40;;;;;;;20.10;11.57;;;;;;;17.30;77.34;101379.13;5002311;28;20026;-96
2022/08/22 06:42:10;;;;;;;18.48;12.60;;;;;;;17.28;77.27;101381.09;5017091;28;20030;-95
2022/08/22 06:44:47;;;;;;;17.23;12.40;;;;;;;17.47;77.05;101409.38;5026275;28;20034;-96
2022/08/22 06:47:22;;;;;;;17.58;12.07;;;;;;;17.41;77.44;101398.06;5010645;28;20081;-95
2022/08/22 06:50:17;;;;;;;13.27;11.13;;;;;;;17.39;77.49;101394.66;5035641;28;20034;-95
2022/08/22 07:22:16;;;;;;;14.98;11.73;;;;;;;18.29;77.32;101424.97;6098626;23;20264;31
2022/08/22 07:24:49;;;;;;;17.60;12.60;;;;;;;18.14;76.88;101381.16;4939340;29;19907;-95
2022/08/22 07:27:43;;;;;;;17.02;12.38;;;;;;;18.58;76.27;101419.22;4922880;29;20058;-94
2022/08/22 07:30:11;;;;;;;17.13;12.25;;;;;;;18.77;75.57;101427.69;4935612;28;20039;-93
2022/08/22 07:33:00;;;;;;;16.80;12.60;;;;;;;18.82;74.74;101390.44;4944528;28;20036;-95
2022/08/22 07:35:40;;;;;;;18.10;12.05;;;;;;;19.21;72.68;101428.78;4945415;29;20110;-93
2022/08/22 07:38:21;;;;;;;18.55;11.63;;;;;;;19.35;72.81;101398.00;4952404;29;20035;-95
2022/08/22 07:41:02;;;;;;;17.40;11.90;;;;;;;19.56;71.86;101395.44;4934032;29;20046;-94
2022/08/22 07:43:34;;;;;;;17.75;12.32;;;;;;;20.16;73.23;101402.28;4927929;29;20039;-94
2022/08/22 07:46:25;;;;;;;18.42;11.68;;;;;;;20.91;69.70;101387.91;4936349;29;20047;-95
2022/08/22 07:48:59;;;;;;;13.25;11.13;;;;;;;21.35;66.11;101416.53;4944592;29;20032;-94
2022/08/22 07:51:40;;;;;;;17.40;11.73;;;;;;;21.86;66.17;101415.66;4947060;28;20191;-94
2022/08/22 07:54:10;;;;;;;13.82;10.80;;;;;;;22.44;63.18;101405.94;4947466;29;20063;-96
2022/08/22 07:57:00;;;;;;;17.65;10.48;;;;;;;23.08;62.72;101410.81;4945726;29;20027;-94
2022/08/22 07:59:28;;;;;;;14.93;10.18;;;;;;;23.70;60.50;101400.34;4949960;29;20071;-95
2022/08/22 08:01:57;;;;;;;14.48;9.88;;;;;;;24.03;55.85;101409.78;4928533;29;20043;-96
2022/08/22 08:04:28;;;;;;;15.57;9.65;;;;;;;24.09;55.81;101411.91;4921765;29;20028;-95
2022/08/22 08:06:58;;;;;;;13.05;9.45;;;;;;;23.92;56.53;101399.13;4923334;29;20110;-96
2022/08/22 08:09:28;;;;;;;15.45;9.35;;;;;;;23.93;56.57;101389.94;4925091;29;20031;-95
2022/08/22 08:11:53;;;;;;;15.93;9.85;;;;;;;23.79;56.46;101391.31;4917247;29;20039;-95
2022/08/22 08:14:22;;;;;;;13.73;9.50;;;;;;;23.83;57.14;101401.75;4923563;29;20131;-94
2022/08/22 08:17:04;;;;;;;13.50;9.35;;;;;;;24.03;57.04;101388.00;4918953;29;20126;-95
2022/08/22 08:19:33;;;;;;;14.70;10.52;;;;;;;24.31;56.08;101389.69;4930440;29;20047;-94
2022/08/22 08:21:58;;;;;;;13.93;9.20;;;;;;;24.55;55.96;101385.53;4920727;29;20102;-95
2022/08/22 08:24:29;;;;;;;25.67;15.85;;;;;;;24.44;55.00;101388.50;4936190;29;20024;-93
2022/08/22 08:29:55;;;;;;;15.68;9.90;;;;;;;24.01;56.11;101381.88;4939003;29;20146;-95
2022/08/22 08:32:23;;;;;;;13.45;8.95;;;;;;;23.95;56.51;101377.03;4924183;29;20058;-95
2022/08/22 08:34:51;;;;;;;10.88;8.00;;;;;;;24.09;57.72;101374.69;4938536;29;20035;-94
2022/08/22 08:37:33;;;;;;;11.90;8.93;;;;;;;24.34;56.70;101383.09;4928378;29;20042;-94
2022/08/22 08:40:06;;;;;;;12.38;8.90;;;;;;;24.50;55.00;101390.59;4938131;29;20035;-93
2022/08/22 08:43:33;;;;;;;13.32;8.98;;;;;;;24.79;55.64;101385.75;4955018;28;20016;-93
2022/08/22 08:46:13;;;;;;;13.93;8.35;;;;;;;25.21;54.81;101392.41;4957161;28;20019;-94
2022/08/22 08:49:13;;;;;;;16.85;8.32;;;;;;;25.63;53.14;101389.75;4952395;28;20197;-94
2022/08/22 08:51:54;;;;;;;13.32;8.07;;;;;;;25.82;50.66;101392.22;4938620;29;20031;-95
2022/08/22 08:54:30;;;;;;;12.02;6.05;;;;;;;26.00;49.09;101385.81;4940160;28;20031;-95
2022/08/22 08:57:32;;;;;;;11.85;4.72;;;;;;;26.42;48.79;101395.81;4922056;29;20110;-95
2022/08/22 09:00:13;;;;;;;9.25;4.80;;;;;;;26.80;45.20;101386.16;4942617;28;20067;-96
2022/08/22 09:03:00;;;;;;;12.68;5.22;;;;;;;26.96;44.12;101385.28;4921382;28;20032;-96
2022/08/22 09:05:46;;;;;;;7.95;4.10;;;;;;;27.22;43.07;101385.13;4925448;29;20031;-94
2022/08/22 09:08:33;;;;;;;9.40;4.07;;;;;;;27.22;43.80;101385.13;4932634;29;20063;-94
2022/08/22 09:11:20;;;;;;;13.07;4.45;;;;;;;26.95;41.18;101384.44;4934413;28;20042;-94
2022/08/22 09:13:56;;;;;;;8.20;3.55;;;;;;;26.58;42.64;101379.47;4939037;29;20052;-95
2022/08/22 09:16:46;;;;;;;8.48;3.80;;;;;;;26.40;42.23;101381.50;4927116;29;20032;-95
2022/08/22 09:19:33;;;;;;;9.52;3.70;;;;;;;26.35;43.33;101381.16;4939903;29;20046;-93
2022/08/22 09:22:16;;;;;;;6.78;3.30;;;;;;;26.22;42.47;101379.75;4931123;28;20071;-95
2022/08/22 09:24:51;;;;;;;;;;;;;;;26.36;44.02;101371.94;4936629;29;20066;-94
2022/08/22 09:28:04;;;;;;;9.07;3.70;;;;;;;25.99;41.79;101367.75;4943032;29;19919;-94
2022/08/22 09:31:01;;;;;;;9.98;4.50;;;;;;;25.58;42.31;101375.72;4919587;29;20056;-94
2022/08/22 09:33:42;;;;;;;6.95;3.67;;;;;;;25.38;42.09;101377.00;4934936;29;20170;-92
2022/08/22 09:36:30;;;;;;;5.93;3.25;;;;;;;25.32;43.31;101367.59;4943808;29;20196;-91
2022/08/22 09:38:58;;;;;;;7.07;3.88;;;;;;;25.12;42.04;101372.41;4936886;29;20770;-90
2022/08/22 09:42:02;;;;;;;7.18;3.53;;;;;;;25.06;42.90;101362.13;4937216;29;20119;-93
2022/08/22 09:45:04;;;;;;;6.15;3.10;;;;;;;25.18;43.59;101379.94;4923987;29;20035;-91
2022/08/22 09:47:38;;;;;;;5.75;3.20;;;;;;;25.22;41.87;101365.00;4938498;29;20092;-92
2022/08/22 09:50:16;;;;;;;8.07;3.55;;;;;;;25.41;41.13;101372.06;4924936;29;20039;-93
2022/08/22 09:53:08;;;;;;;9.65;3.65;;;;;;;25.53;41.84;101370.78;4940606;29;20380;-92
2022/08/22 09:55:55;;;;;;;8.02;3.25;;;;;;;25.57;42.02;101374.88;4941655;29;20040;-94
2022/08/22 09:58:36;;;;;;;9.35;3.70;;;;;;;25.71;41.93;101375.28;4945205;29;20075;-95
2022/08/22 10:01:25;;;;;;;8.52;3.67;;;;;;;25.89;42.30;101359.72;4936671;29;20028;-94
2022/08/22 10:04:08;;;;;;;9.90;3.72;;;;;;;26.03;41.93;101367.25;5279924;23;20332;-95
2022/08/22 10:06:59;;;;;;;8.50;3.70;;;;;;;26.24;41.69;101344.09;4937107;29;20020;-95
2022/08/22 10:09:31;;;;;;;9.55;3.65;;;;;;;26.45;40.37;101349.97;4939177;29;20115;-95
2022/08/22 10:12:10;;;;;;;9.95;3.80;;;;;;;26.67;39.49;101351.19;4945746;29;20119;-94
2022/08/22 10:15:07;;;;;;;9.85;3.47;;;;;;;26.81;39.44;101336.81;4917432;29;20143;-95
2022/08/22 10:17:42;;;;;;;7.88;3.28;;;;;;;27.32;37.34;101336.59;4923635;29;20508;-94
2022/08/22 10:20:27;;;;;;;7.45;3.05;;;;;;;27.62;37.65;101325.88;4928147;29;20103;-95
2022/08/22 10:23:44;;;;;;;9.02;3.10;;;;;;;30.86;32.88;101353.81;4939598;29;20034;-93
2022/08/22 10:26:42;;;;;;;8.75;2.85;;;;;;;33.00;27.75;101327.75;4914140;28;20059;-96
2022/08/22 10:29:31;;;;;;;5.53;2.60;;;;;;;34.02;26.51;101339.13;4938085;29;20252;-96
2022/08/22 10:32:08;;;;;;;7.60;2.83;;;;;;;34.05;26.24;101334.00;4952277;29;20061;-96
2022/08/22 10:34:44;;;;;;;6.80;3.10;;;;;;;33.41;27.13;101346.75;4927760;29;20032;-95
2022/08/22 10:37:42;;;;;;;10.63;3.15;;;;;;;32.89;27.71;101339.38;4945070;28;20047;-95
2022/08/22 10:43:04;;;;;;;7.50;3.08;;;;;;;33.64;25.41;101335.22;4948463;28;20035;-95
2022/08/22 10:45:38;;;;;;;5.90;2.67;;;;;;;33.08;27.73;101321.16;4959084;28;20058;-96
2022/08/22 10:48:04;;;;;;;6.97;2.85;;;;;;;33.12;26.11;101331.53;4942178;29;20290;-94
2022/08/22 10:50:35;;;;;;;8.10;2.63;;;;;;;33.57;26.02;101328.91;4958621;29;20065;-96
2022/08/22 10:56:03;;;;;;;6.73;2.87;;;;;;;32.95;26.90;101324.78;4951971;29;20039;-94
2022/08/22 10:58:35;;;;;;;8.40;2.80;;;;;;;32.80;26.76;101316.69;4958615;28;20333;-93
2022/08/22 11:01:03;;;;;;;5.78;3.17;;;;;;;32.91;26.97;101316.06;4939704;29;20031;-95
2022/08/22 11:04:05;;;;;;;8.85;3.20;;;;;;;33.56;27.47;101332.72;4957475;29;20082;-95
2022/08/22 11:06:46;;;;;;;6.30;2.70;;;;;;;35.23;25.45;101316.69;4958216;29;20015;-95
2022/08/22 11:09:23;;;;;;;8.20;3.03;;;;;;;34.73;24.69;101321.41;4956003;28;20023;-95
2022/08/22 11:12:11;;;;;;;7.70;3.08;;;;;;;35.40;25.37;101325.22;4954203;28;20130;-96
2022/08/22 11:15:01;;;;;;;6.78;2.45;;;;;;;35.62;25.42;101315.41;4940771;29;20067;-94
2022/08/22 11:17:51;;;;;;;10.38;3.67;;;;;;;34.25;25.76;101314.56;4941440;29;20035;-94
2022/08/22 11:20:23;;;;;;;6.72;3.13;;;;;;;34.29;26.80;101320.47;4954367;28;20063;-91
2022/08/22 11:22:52;;;;;;;7.13;3.08;;;;;;;34.38;25.84;101321.91;4957696;29;20027;-92
2022/08/22 11:25:40;;;;;;;9.80;3.50;;;;;;;34.40;27.11;101325.25;4960776;29;20032;-95
2022/08/22 11:28:27;;;;;;;8.13;3.75;;;;;;;34.12;26.14;101304.44;4959067;29;20031;-96
2022/08/22 11:31:04;;;;;;;6.70;3.30;;;;;;;34.03;27.34;101315.94;4936829;29;20035;-96
2022/08/22 11:33:50;;;;;;;8.55;3.78;;;;;;;34.12;26.49;101325.69;4923431;29;20335;-95
2022/08/22 11:36:35;;;;;;;7.38;3.28;;;;;;;33.89;27.50;101315.16;4951132;29;20046;-96
2022/08/22 11:39:06;;;;;;;7.53;3.50;;;;;;;33.31;27.39;101320.66;4963143;29;20110;-94
2022/08/22 11:41:43;;;;;;;9.52;3.05;;;;;;;33.30;27.69;101305.19;4956542;28;20054;-96
2022/08/22 11:44:23;;;;;;;9.95;3.40;;;;;;;32.61;28.10;101307.41;4958062;29;20035;-96
2022/08/22 11:46:51;;;;;;;6.22;3.38;;;;;;;31.50;29.08;101287.59;4959154;29;20031;-93
2022/08/22 11:49:54;;;;;;;5.40;3.40;;;;;;;31.41;29.26;101308.09;4956134;29;20027;-96
2022/08/22 11:52:19;;;;;;;8.45;3.00;;;;;;;30.93;29.51;101306.06;4952937;28;20046;-92
2022/08/22 11:55:15;;;;;;;8.15;3.08;;;;;;;31.20;29.62;101300.75;4951483;29;20039;-95
2022/08/22 11:57:54;;;;;;;7.75;3.10;;;;;;;31.59;29.29;101293.78;4948241;29;20055;-95
2022/08/22 12:00:36;;;;;;;6.38;2.95;;;;;;;31.63;28.31;101295.06;4954729;28;20050;-94
2022/08/22 12:03:16;;;;;;;6.65;3.40;;;;;;;31.50;28.67;101304.94;4938371;29;20027;-95
2022/08/22 12:05:48;;;;;;;8.77;3.70;;;;;;;31.36;29.24;101297.72;4940044;29;20038;-92
2022/08/22 12:08:28;;;;;;;7.78;3.33;;;;;;;30.97;29.77;101301.88;4955946;29;20110;-93
2022/08/22 12:11:06;;;;;;;7.63;3.13;;;;;;;30.63;29.38;101288.91;4945686;29;20440;-95
2022/08/22 12:13:53;;;;;;;7.70;3.65;;;;;;;30.43;30.06;101307.09;4936704;29;20027;-94
2022/08/22 12:16:22;;;;;;;8.88;3.08;;;;;;;30.12;31.61;101299.19;4941342;29;20496;-96
2022/08/22 12:19:05;;;;;;;5.43;2.53;;;;;;;30.05;31.67;101301.00;4940823;29;20031;-96
2022/08/22 12:21:31;;;;;;;;;;;;;;;30.32;31.90;101300.25;4939895;29;20036;-96
2022/08/22 12:23:59;;;;;;;6.18;2.53;;;;;;;29.77;30.93;101304.50;4943213;28;20414;-95
2022/08/22 12:26:31;;;;;;;9.32;4.82;;;;;;;29.45;32.00;101289.28;4971258;28;20035;-95
2022/08/22 12:29:08;;;;;;;8.45;3.03;;;;;;;29.47;32.19;101300.91;4968033;28;20059;-96
2022/08/22 12:32:11;;;;;;;6.88;2.85;;;;;;;29.22;30.53;101306.72;4949721;29;20038;-95
2022/08/22 12:35:12;;;;;;;7.43;2.60;;;;;;;28.74;31.39;101306.16;4972160;28;20043;-95
2022/08/22 12:37:55;;;;;;;5.90;2.65;;;;;;;28.43;31.85;101298.06;4958734;28;20054;-96
2022/08/22 12:40:32;;;;;;;5.72;2.72;;;;;;;28.26;33.33;101297.31;4958967;28;20070;-96
2022/08/22 12:43:25;;;;;;;5.97;2.47;;;;;;;28.08;33.27;101301.38;4959721;28;20023;-96
2022/08/22 12:46:08;;;;;;;;;;;;;;;28.36;33.47;101298.97;4948499;28;20038;-96
2022/08/22 12:49:14;;;;;;;6.03;2.40;;;;;;;28.20;33.06;101294.44;4941224;28;19964;-95
2022/08/22 12:51:53;;;;;;;5.53;2.63;;;;;;;28.12;33.19;101289.88;4958284;28;20046;-96
2022/08/22 12:54:35;;;;;;;5.15;2.17;;;;;;;28.08;32.38;101283.06;4959048;28;20031;-94
2022/08/22 12:57:07;;;;;;;6.22;2.10;;;;;;;28.14;33.52;101276.88;4955393;28;20063;-96
2022/08/22 12:59:43;;;;;;;5.55;2.15;;;;;;;28.40;32.91;101281.16;4943550;29;20023;-96
2022/08/22 13:02:17;;;;;;;7.10;2.72;;;;;;;28.46;33.50;101273.03;4939736;28;20074;-95
2022/08/22 13:04:55;;;;;;;6.63;2.78;;;;;;;28.66;33.88;101278.84;4940685;29;20027;-96
2022/08/22 13:07:30;;;;;;;7.97;2.60;;;;;;;28.66;32.49;101269.78;4954653;29;20556;-94
2022/08/22 13:10:01;;;;;;;7.45;2.85;;;;;;;28.65;32.43;101273.56;4939776;29;20023;-96
2022/08/22 13:12:35;;;;;;;8.35;2.95;;;;;;;28.71;31.82;101272.78;4939314;29;20027;-95